Time;durP1;ratioP1;P1;durP2;ratioP2;P2;SDS_P1;SDS_P2;PMS_P1;PMS_P2;Temp;Humidity;BMP_temperature;BMP_pressure;BME280_temperature;BME280_humidity;BME280_pressure;Samples;Min_cycle;Max_cycle;Signal;HPM_P1;HPM_P2
2023/12/07 00:01:17;;;;;;;2.30;2.30;;;;;;;;;;6214391;23;20173;-88
2023/12/07 00:03:46;;;;;;;0.70;0.70;;;;;;;;;;6214817;23;20173;-88
2023/12/07 00:06:14;;;;;;;0.80;0.80;;;;;;;;;;6214567;23;20182;-88
2023/12/07 00:08:44;;;;;;;2.33;2.33;;;;;;;;;;6215109;23;20213;-88
2023/12/07 00:11:13;;;;;;;2.07;1.97;;;;;;;;;;6213997;23;20179;-87
2023/12/07 00:13:41;;;;;;;4.00;2.20;;;;;;;;;;6214912;23;20196;-88
2023/12/07 00:16:10;;;;;;;3.00;2.60;;;;;;;;;;6215134;23;20176;-88
2023/12/07 00:18:38;;;;;;;5.97;5.07;;;;;;;;;;6214897;23;20172;-88
2023/12/07 00:21:06;;;;;;;2.07;1.93;;;;;;;;;;6215013;23;20184;-88
2023/12/07 00:23:35;;;;;;;1.37;1.37;;;;;;;;;;6214307;23;20192;-88
2023/12/07 00:26:05;;;;;;;3.90;3.33;;;;;;;;;;6214932;23;20204;-88
2023/12/07 00:28:33;;;;;;;1.77;1.77;;;;;;;;;;6215287;23;20183;-88
2023/12/07 00:31:03;;;;;;;1.83;1.73;;;;;;;;;;6214409;23;20231;-88
2023/12/07 00:33:31;;;;;;;4.47;3.80;;;;;;;;;;6214326;23;20190;-88
2023/12/07 00:36:00;;;;;;;0.90;0.90;;;;;;;;;;6214719;23;20181;-88
2023/12/07 00:38:28;;;;;;;0.80;0.80;;;;;;;;;;6214714;23;20200;-88
2023/12/07 00:40:57;;;;;;;2.07;1.97;;;;;;;;;;6214508;23;20279;-88
2023/12/07 00:43:26;;;;;;;2.80;2.70;;;;;;;;;;6214694;23;20205;-88
2023/12/07 00:45:55;;;;;;;1.20;1.20;;;;;;;;;;6214775;23;20181;-88
2023/12/07 00:48:23;;;;;;;3.50;3.40;;;;;;;;;;6215340;23;20175;-87
2023/12/07 00:50:52;;;;;;;0.80;0.80;;;;;;;;;;6214850;23;20182;-88
2023/12/07 00:53:20;;;;;;;4.30;4.20;;;;;;;;;;6213983;23;20200;-88
2023/12/07 00:55:49;;;;;;;8.90;8.33;;;;;;;;;;6215158;23;20206;-88
2023/12/07 00:58:17;;;;;;;2.83;2.63;;;;;;;;;;6214622;23;20185;-88
2023/12/07 01:00:47;;;;;;;1.00;1.00;;;;;;;;;;6214583;23;20234;-88
2023/12/07 01:03:16;;;;;;;0.70;0.70;;;;;;;;;;6214314;23;20176;-88
2023/12/07 01:05:44;;;;;;;0.70;0.70;;;;;;;;;;6215108;23;20259;-88
2023/12/07 01:08:13;;;;;;;0.80;0.80;;;;;;;;;;6214804;23;20209;-88
2023/12/07 01:10:41;;;;;;;0.73;0.73;;;;;;;;;;6214497;23;20433;-88
2023/12/07 01:13:10;;;;;;;1.13;1.13;;;;;;;;;;6214170;23;20262;-88
2023/12/07 01:15:38;;;;;;;0.80;0.80;;;;;;;;;;6215037;23;20169;-88
2023/12/07 01:18:08;;;;;;;1.20;1.20;;;;;;;;;;6214737;23;20181;-88
2023/12/07 01:20:37;;;;;;;1.87;1.87;;;;;;;;;;6213907;23;20179;-88
2023/12/07 01:23:04;;;;;;;0.90;0.90;;;;;;;;;;6213764;23;20505;-88
2023/12/07 01:25:33;;;;;;;0.70;0.70;;;;;;;;;;6214101;23;20256;-88
2023/12/07 01:28:02;;;;;;;0.93;0.93;;;;;;;;;;6214221;23;20199;-88
2023/12/07 01:30:30;;;;;;;17.03;9.97;;;;;;;;;;6214031;23;20182;-89
2023/12/07 01:32:59;;;;;;;9.73;8.67;;;;;;;;;;6213241;23;20203;-88
2023/12/07 01:35:29;;;;;;;14.87;7.03;;;;;;;;;;6214639;23;20280;-88
2023/12/07 01:37:58;;;;;;;0.80;0.80;;;;;;;;;;6214308;23;20172;-88
2023/12/07 01:40:26;;;;;;;0.80;0.80;;;;;;;;;;6214230;23;20190;-88
2023/12/07 01:42:55;;;;;;;2.20;2.20;;;;;;;;;;6213430;23;20211;-88
2023/12/07 01:45:23;;;;;;;0.97;0.97;;;;;;;;;;6214496;23;20180;-88
2023/12/07 01:47:53;;;;;;;0.80;0.80;;;;;;;;;;6214215;23;20184;-88
2023/12/07 01:50:23;;;;;;;1.57;1.57;;;;;;;;;;6214223;23;20179;-88
2023/12/07 01:52:56;;;;;;;0.90;0.90;;;;;;;;;;6212964;23;20250;-88
2023/12/07 01:55:26;;;;;;;0.80;0.80;;;;;;;;;;6214816;23;20174;-88
2023/12/07 01:57:54;;;;;;;2.20;2.10;;;;;;;;;;6214782;23;20176;-88
2023/12/07 02:00:23;;;;;;;2.70;2.50;;;;;;;;;;6214078;23;20176;-88
2023/12/07 02:02:52;;;;;;;0.93;0.93;;;;;;;;;;6213021;23;20267;-88
2023/12/07 02:05:20;;;;;;;1.73;1.73;;;;;;;;;;6213981;23;20197;-88
2023/12/07 02:07:49;;;;;;;1.10;1.10;;;;;;;;;;6213994;23;20212;-88
2023/12/07 02:10:20;;;;;;;3.80;3.53;;;;;;;;;;6213752;23;20202;-88
2023/12/07 02:12:49;;;;;;;2.70;2.50;;;;;;;;;;6213174;23;20170;-88
2023/12/07 02:15:18;;;;;;;4.10;3.67;;;;;;;;;;6213852;23;20194;-88
2023/12/07 02:17:51;;;;;;;4.07;3.87;;;;;;;;;;6214638;23;20249;-88
2023/12/07 02:20:22;;;;;;;0.90;0.90;;;;;;;;;;6213285;23;20167;-88
2023/12/07 02:22:53;;;;;;;0.77;0.77;;;;;;;;;;6212817;23;20231;-88
2023/12/07 02:25:25;;;;;;;4.83;2.67;;;;;;;;;;6213676;23;20206;-88
2023/12/07 02:27:55;;;;;;;0.93;0.93;;;;;;;;;;6213954;23;20175;-88
2023/12/07 02:30:24;;;;;;;2.00;2.00;;;;;;;;;;6214222;23;20258;-88
2023/12/07 02:32:52;;;;;;;2.97;2.87;;;;;;;;;;6213256;23;20189;-88
2023/12/07 02:35:21;;;;;;;0.90;0.90;;;;;;;;;;6214078;23;20198;-88
2023/12/07 02:37:50;;;;;;;12.97;12.40;;;;;;;;;;6214169;23;20174;-88
2023/12/07 02:40:19;;;;;;;2.30;2.20;;;;;;;;;;6213417;23;20171;-88
2023/12/07 02:42:48;;;;;;;13.10;8.73;;;;;;;;;;6213309;23;20180;-88
2023/12/07 02:45:18;;;;;;;9.77;7.77;;;;;;;;;;6213572;23;20236;-88
2023/12/07 02:47:46;;;;;;;21.77;12.97;;;;;;;;;;6213967;23;20176;-88
2023/12/07 02:50:15;;;;;;;2.20;2.00;;;;;;;;;;6213608;23;20188;-88
2023/12/07 02:52:44;;;;;;;10.17;7.10;;;;;;;;;;6213228;23;20186;-88
2023/12/07 02:55:12;;;;;;;10.73;8.40;;;;;;;;;;6213724;23;20240;-88
2023/12/07 02:57:41;;;;;;;14.23;11.90;;;;;;;;;;6213782;23;20178;-88
2023/12/07 03:00:12;;;;;;;14.20;11.37;;;;;;;;;;6213461;23;20241;-88
2023/12/07 03:02:42;;;;;;;14.80;11.93;;;;;;;;;;6212719;23;20176;-88
2023/12/07 03:05:11;;;;;;;20.00;14.30;;;;;;;;;;6214000;23;20168;-88
2023/12/07 03:07:40;;;;;;;20.43;13.77;;;;;;;;;;6214428;23;20180;-88
2023/12/07 03:10:09;;;;;;;19.37;10.83;;;;;;;;;;6213254;23;20176;-88
2023/12/07 03:12:37;;;;;;;18.50;11.10;;;;;;;;;;6212834;23;20179;-88
2023/12/07 03:15:06;;;;;;;15.03;9.90;;;;;;;;;;6213637;23;20190;-89
2023/12/07 03:17:35;;;;;;;12.30;9.00;;;;;;;;;;6213596;23;20171;-88
2023/12/07 03:20:05;;;;;;;8.60;6.10;;;;;;;;;;6213501;23;20176;-88
2023/12/07 03:22:34;;;;;;;5.43;4.87;;;;;;;;;;6213006;23;20199;-88
2023/12/07 03:25:03;;;;;;;12.37;8.67;;;;;;;;;;6213403;23;20254;-88
2023/12/07 03:27:31;;;;;;;1.50;1.47;;;;;;;;;;6213495;23;20203;-88
2023/12/07 03:30:00;;;;;;;3.40;3.20;;;;;;;;;;6213260;23;20178;-88
2023/12/07 03:32:28;;;;;;;0.70;0.70;;;;;;;;;;6212550;23;20191;-88
2023/12/07 03:34:57;;;;;;;0.70;0.70;;;;;;;;;;6214159;23;20195;-88
2023/12/07 03:37:26;;;;;;;0.70;0.70;;;;;;;;;;6215554;23;20172;-89
2023/12/07 03:39:55;;;;;;;0.70;0.70;;;;;;;;;;6215198;23;20186;-89
2023/12/07 03:42:23;;;;;;;1.03;1.03;;;;;;;;;;6214557;23;20206;-89
2023/12/07 03:45:12;;;;;;;0.73;0.73;;;;;;;;;;6215290;23;20181;-89
2023/12/07 03:47:40;;;;;;;0.70;0.70;;;;;;;;;;6215604;23;20191;-89
2023/12/07 03:50:09;;;;;;;0.70;0.70;;;;;;;;;;6215712;23;20180;-88
2023/12/07 03:52:39;;;;;;;0.80;0.80;;;;;;;;;;6214746;23;20182;-88
2023/12/07 03:55:08;;;;;;;0.70;0.70;;;;;;;;;;6215419;23;20192;-89
2023/12/07 03:57:37;;;;;;;0.80;0.80;;;;;;;;;;6215697;23;20227;-88
2023/12/07 04:00:09;;;;;;;2.73;1.30;;;;;;;;;;6215313;23;20181;-88
2023/12/07 04:02:38;;;;;;;1.00;1.00;;;;;;;;;;6215052;23;20187;-88
2023/12/07 04:05:06;;;;;;;0.80;0.80;;;;;;;;;;6215292;23;20183;-88
2023/12/07 04:07:35;;;;;;;0.80;0.80;;;;;;;;;;6215567;23;20179;-89
2023/12/07 04:10:06;;;;;;;0.70;0.70;;;;;;;;;;6215445;23;20270;-88
2023/12/07 04:12:35;;;;;;;0.70;0.70;;;;;;;;;;6214712;23;20180;-88
2023/12/07 04:15:03;;;;;;;0.90;0.90;;;;;;;;;;6215276;23;20203;-89
2023/12/07 04:17:32;;;;;;;2.27;2.20;;;;;;;;;;6215816;23;20185;-88
2023/12/07 04:20:01;;;;;;;2.50;2.30;;;;;;;;;;6215617;23;20179;-89
2023/12/07 04:22:29;;;;;;;0.97;0.97;;;;;;;;;;6214480;23;20186;-89
2023/12/07 04:24:58;;;;;;;1.83;1.73;;;;;;;;;;6214348;23;20228;-89
2023/12/07 04:27:28;;;;;;;1.30;1.30;;;;;;;;;;6215711;23;20201;-88
2023/12/07 04:29:56;;;;;;;2.07;1.97;;;;;;;;;;6214581;23;20174;-89
2023/12/07 04:32:25;;;;;;;7.67;6.77;;;;;;;;;;6214296;23;20414;-89
2023/12/07 04:34:54;;;;;;;1.20;1.20;;;;;;;;;;6214867;23;20225;-88
2023/12/07 04:37:23;;;;;;;2.00;1.90;;;;;;;;;;6215277;23;20182;-89
2023/12/07 04:39:52;;;;;;;1.63;1.63;;;;;;;;;;6215065;23;20178;-88
2023/12/07 04:42:20;;;;;;;1.70;1.70;;;;;;;;;;6214135;23;20178;-88
2023/12/07 04:44:50;;;;;;;0.80;0.80;;;;;;;;;;6214326;23;20179;-88
2023/12/07 04:47:19;;;;;;;4.27;2.33;;;;;;;;;;6215134;23;20202;-88
2023/12/07 04:49:47;;;;;;;14.63;11.03;;;;;;;;;;6215011;23;20172;-88
2023/12/07 04:52:16;;;;;;;21.20;16.17;;;;;;;;;;6214088;23;20197;-88
2023/12/07 04:54:45;;;;;;;23.57;17.63;;;;;;;;;;6214370;23;20244;-89
2023/12/07 04:57:13;;;;;;;26.30;19.50;;;;;;;;;;6214572;23;20172;-88
2023/12/07 04:59:46;;;;;;;29.33;20.73;;;;;;;;;;6215290;23;20180;-88
2023/12/07 05:02:17;;;;;;;25.47;15.83;;;;;;;;;;6214054;23;20242;-88
2023/12/07 05:04:46;;;;;;;39.17;27.20;;;;;;;;;;6214646;23;20204;-88
2023/12/07 05:07:15;;;;;;;32.33;26.03;;;;;;;;;;6214368;23;20202;-88
2023/12/07 05:09:43;;;;;;;33.60;26.03;;;;;;;;;;6214907;23;20182;-88
2023/12/07 05:12:12;;;;;;;42.17;27.37;;;;;;;;;;6213928;23;20173;-89
2023/12/07 05:14:40;;;;;;;41.63;28.03;;;;;;;;;;6214032;23;20174;-88
2023/12/07 05:17:09;;;;;;;39.70;27.23;;;;;;;;;;6214281;23;20171;-89
2023/12/07 05:19:39;;;;;;;39.33;27.73;;;;;;;;;;6214463;23;20177;-89
2023/12/07 05:22:08;;;;;;;40.43;28.20;;;;;;;;;;6213683;23;20185;-89
2023/12/07 05:24:36;;;;;;;36.07;21.37;;;;;;;;;;6213996;23;20180;-88
2023/12/07 05:27:05;;;;;;;44.83;29.80;;;;;;;;;;6214213;23;20183;-88
2023/12/07 05:29:33;;;;;;;42.90;33.83;;;;;;;;;;6214354;23;20180;-89
2023/12/07 05:32:02;;;;;;;42.70;31.33;;;;;;;;;;6213370;23;20171;-88
2023/12/07 05:34:31;;;;;;;17.37;13.07;;;;;;;;;;6214136;23;20172;-88
2023/12/07 05:37:00;;;;;;;50.27;29.10;;;;;;;;;;6214094;23;20192;-89
2023/12/07 05:39:28;;;;;;;40.43;33.63;;;;;;;;;;6214263;23;20168;-88
2023/12/07 05:41:57;;;;;;;42.03;32.33;;;;;;;;;;6213205;23;20186;-88
2023/12/07 05:44:25;;;;;;;52.57;32.53;;;;;;;;;;6213964;23;20189;-89
2023/12/07 05:46:54;;;;;;;50.03;34.17;;;;;;;;;;6214328;23;20168;-89
2023/12/07 05:49:23;;;;;;;31.17;22.53;;;;;;;;;;6214156;23;20172;-88
2023/12/07 05:51:52;;;;;;;41.10;26.17;;;;;;;;;;6214084;23;20205;-88
2023/12/07 05:54:23;;;;;;;27.97;19.77;;;;;;;;;;6213691;23;20171;-89
2023/12/07 05:56:52;;;;;;;45.87;32.80;;;;;;;;;;6213720;23;20226;-89
2023/12/07 05:59:20;;;;;;;41.30;24.20;;;;;;;;;;6214349;23;20174;-89
2023/12/07 06:01:49;;;;;;;45.70;36.20;;;;;;;;;;6213349;23;20331;-89
2023/12/07 06:04:17;;;;;;;42.93;33.40;;;;;;;;;;6213612;23;20266;-89
2023/12/07 06:06:47;;;;;;;43.80;30.40;;;;;;;;;;6214616;23;20180;-88
2023/12/07 06:09:16;;;;;;;30.70;21.73;;;;;;;;;;6214276;23;20174;-89
2023/12/07 06:11:46;;;;;;;25.37;14.53;;;;;;;;;;6214202;23;20181;-88
2023/12/07 06:14:15;;;;;;;44.43;28.17;;;;;;;;;;6214815;23;20175;-88
2023/12/07 06:16:43;;;;;;;26.57;16.70;;;;;;;;;;6213736;23;20183;-88
2023/12/07 06:19:11;;;;;;;40.13;27.43;;;;;;;;;;6214159;23;20172;-88
2023/12/07 06:21:40;;;;;;;40.47;29.77;;;;;;;;;;6213689;23;20182;-89
2023/12/07 06:24:09;;;;;;;38.10;27.07;;;;;;;;;;6213019;23;20191;-88
2023/12/07 06:26:38;;;;;;;24.80;19.53;;;;;;;;;;6213692;23;20207;-89
2023/12/07 06:29:08;;;;;;;17.80;14.47;;;;;;;;;;6214852;23;20183;-89
2023/12/07 06:31:36;;;;;;;12.13;7.63;;;;;;;;;;6213642;23;20318;-89
2023/12/07 06:34:05;;;;;;;9.50;5.17;;;;;;;;;;6213004;23;20176;-89
2023/12/07 06:36:33;;;;;;;1.20;1.20;;;;;;;;;;6214347;23;20182;-90
2023/12/07 06:39:03;;;;;;;1.90;1.80;;;;;;;;;;6214414;23;20172;-89
2023/12/07 06:41:31;;;;;;;5.07;3.13;;;;;;;;;;6213919;23;20223;-89
2023/12/07 06:44:00;;;;;;;2.07;1.97;;;;;;;;;;6213664;23;20176;-90
2023/12/07 06:46:30;;;;;;;0.90;0.90;;;;;;;;;;6214253;23;20220;-90
2023/12/07 06:48:58;;;;;;;9.60;7.37;;;;;;;;;;6214510;23;20167;-90
2023/12/07 06:51:26;;;;;;;27.77;16.90;;;;;;;;;;6213873;23;20228;-89
2023/12/07 06:53:55;;;;;;;35.90;22.70;;;;;;;;;;6217660;23;20170;-90
2023/12/07 06:56:23;;;;;;;32.70;24.70;;;;;;;;;;6218718;23;20199;-91
2023/12/07 06:58:52;;;;;;;35.10;23.77;;;;;;;;;;6215984;23;20267;-90
2023/12/07 07:01:20;;;;;;;27.27;16.77;;;;;;;;;;6215372;23;20210;-90
2023/12/07 07:03:50;;;;;;;24.00;12.27;;;;;;;;;;6218667;23;20178;-92
2023/12/07 07:06:19;;;;;;;25.67;18.57;;;;;;;;;;6215655;23;20171;-92
2023/12/07 07:08:49;;;;;;;33.83;25.10;;;;;;;;;;6215774;23;20179;-92
2023/12/07 07:11:17;;;;;;;30.77;23.43;;;;;;;;;;6218892;23;20250;-90
2023/12/07 07:13:46;;;;;;;40.00;30.33;;;;;;;;;;6220795;23;20183;-89
2023/12/07 07:16:14;;;;;;;41.83;28.03;;;;;;;;;;6214755;23;20205;-90
2023/12/07 07:18:43;;;;;;;38.90;24.57;;;;;;;;;;6214218;23;20198;-89
2023/12/07 07:21:13;;;;;;;45.33;29.80;;;;;;;;;;6214189;23;20171;-87
2023/12/07 07:23:42;;;;;;;157.20;57.73;;;;;;;;;;6212747;23;20193;-88
2023/12/07 07:26:11;;;;;;;176.73;57.90;;;;;;;;;;6214008;23;20234;-87
2023/12/07 07:28:40;;;;;;;198.13;53.97;;;;;;;;;;6213884;23;20213;-88
2023/12/07 07:31:08;;;;;;;303.10;73.57;;;;;;;;;;6213616;23;20193;-88
2023/12/07 07:33:37;;;;;;;313.63;77.23;;;;;;;;;;6213615;23;20182;-88
2023/12/07 07:36:06;;;;;;;283.13;58.30;;;;;;;;;;6213514;23;20174;-88
2023/12/07 07:38:36;;;;;;;234.60;53.03;;;;;;;;;;6213776;23;20201;-88
2023/12/07 07:41:04;;;;;;;258.13;57.07;;;;;;;;;;6213111;23;20170;-88
2023/12/07 07:43:34;;;;;;;318.83;68.80;;;;;;;;;;6212851;23;20166;-88
2023/12/07 07:46:02;;;;;;;313.43;74.20;;;;;;;;;;6213674;23;20178;-86
2023/12/07 07:48:31;;;;;;;294.87;74.80;;;;;;;;;;6213289;23;20166;-87
2023/12/07 07:51:00;;;;;;;284.03;74.20;;;;;;;;;;6213471;23;20197;-87
2023/12/07 07:53:28;;;;;;;251.13;62.93;;;;;;;;;;6212909;23;20188;-86
2023/12/07 07:55:59;;;;;;;178.67;50.03;;;;;;;;;;6213730;23;20181;-87
2023/12/07 07:58:27;;;;;;;269.97;64.67;;;;;;;;;;6213751;23;20167;-86
2023/12/07 08:00:56;;;;;;;208.50;51.67;;;;;;;;;;6212965;23;20181;-86
2023/12/07 08:03:24;;;;;;;227.77;53.40;;;;;;;;;;6212025;23;20166;-86
2023/12/07 08:05:53;;;;;;;188.40;53.10;;;;;;;;;;6212957;23;20177;-87
2023/12/07 08:08:22;;;;;;;195.53;55.40;;;;;;;;;;6212907;23;20171;-86
2023/12/07 08:10:51;;;;;;;235.83;58.27;;;;;;;;;;6213102;23;20178;-86
2023/12/07 08:13:25;;;;;;;270.93;73.80;;;;;;;;;;6211400;23;20177;-86
2023/12/07 08:15:54;;;;;;;154.37;42.93;;;;;;;;;;6213622;23;20186;-86
2023/12/07 08:18:26;;;;;;;244.93;62.87;;;;;;;;;;6212579;23;20212;-86
2023/12/07 08:20:55;;;;;;;243.67;77.20;;;;;;;;;;6213931;23;20181;-85
2023/12/07 08:23:24;;;;;;;254.53;73.80;;;;;;;;;;6214056;23;20222;-86
2023/12/07 08:25:52;;;;;;;262.17;77.80;;;;;;;;;;6214808;23;20294;-86
2023/12/07 08:28:21;;;;;;;216.03;74.73;;;;;;;;;;6214973;23;20177;-85
2023/12/07 08:30:51;;;;;;;237.07;77.20;;;;;;;;;;6215196;23;20413;-86
2023/12/07 08:33:20;;;;;;;151.70;48.93;;;;;;;;;;6213598;23;20170;-86
2023/12/07 08:35:54;;;;;;;193.57;69.47;;;;;;;;;;6214615;23;20405;-86
2023/12/07 08:38:23;;;;;;;159.67;62.43;;;;;;;;;;6214817;23;20197;-86
2023/12/07 08:40:51;;;;;;;178.53;63.40;;;;;;;;;;6214591;23;20178;-86
2023/12/07 08:43:21;;;;;;;176.83;58.17;;;;;;;;;;6213743;23;20209;-87
2023/12/07 08:45:49;;;;;;;211.67;68.83;;;;;;;;;;6214231;23;20166;-86
2023/12/07 08:48:21;;;;;;;132.77;40.67;;;;;;;;;;6214519;23;20274;-86
2023/12/07 08:50:50;;;;;;;64.00;23.30;;;;;;;;;;6214619;23;20252;-86
2023/12/07 08:53:18;;;;;;;176.57;57.57;;;;;;;;;;6213655;23;20234;-86
2023/12/07 08:55:47;;;;;;;191.40;48.40;;;;;;;;;;6213750;23;20170;-86
2023/12/07 08:58:15;;;;;;;138.93;34.07;;;;;;;;;;6214315;23;20236;-86
2023/12/07 09:00:44;;;;;;;163.30;52.07;;;;;;;;;;6214806;23;20203;-86
2023/12/07 09:03:13;;;;;;;202.60;58.80;;;;;;;;;;6213894;23;20175;-86
2023/12/07 09:05:43;;;;;;;205.57;60.27;;;;;;;;;;6213781;23;20178;-86
2023/12/07 09:08:12;;;;;;;142.67;50.37;;;;;;;;;;6214923;23;20167;-86
2023/12/07 09:10:40;;;;;;;161.93;62.03;;;;;;;;;;6214431;23;20170;-86
2023/12/07 09:13:09;;;;;;;198.77;70.37;;;;;;;;;;6214423;23;20189;-86
2023/12/07 09:15:38;;;;;;;190.23;68.13;;;;;;;;;;6214148;23;20184;-86
2023/12/07 09:18:06;;;;;;;170.43;54.53;;;;;;;;;;6214329;23;20240;-86
2023/12/07 09:20:35;;;;;;;150.57;50.43;;;;;;;;;;6214300;23;20174;-86
2023/12/07 09:23:05;;;;;;;166.83;60.03;;;;;;;;;;6213226;23;20424;-85
2023/12/07 09:25:34;;;;;;;128.77;51.67;;;;;;;;;;6214040;23;20202;-86
2023/12/07 09:28:02;;;;;;;140.13;50.23;;;;;;;;;;6214783;23;20189;-85
2023/12/07 09:30:33;;;;;;;135.20;44.50;;;;;;;;;;6215757;23;20257;-82
2023/12/07 09:33:02;;;;;;;195.47;55.50;;;;;;;;;;6214334;23;20205;-86
2023/12/07 09:35:34;;;;;;;126.87;51.50;;;;;;;;;;6214211;23;20232;-86
2023/12/07 09:38:03;;;;;;;41.17;17.33;;;;;;;;;;6214306;23;20217;-86
2023/12/07 09:40:33;;;;;;;127.83;42.27;;;;;;;;;;6214210;23;20230;-86
2023/12/07 09:43:02;;;;;;;127.03;48.03;;;;;;;;;;6213557;23;20185;-86
2023/12/07 09:45:30;;;;;;;117.03;41.03;;;;;;;;;;6213633;23;20181;-86
2023/12/07 09:48:02;;;;;;;23.73;12.70;;;;;;;;;;6214987;23;20174;-84
2023/12/07 09:50:30;;;;;;;130.63;43.63;;;;;;;;;;6213994;23;20271;-84
2023/12/07 09:53:00;;;;;;;90.77;30.47;;;;;;;;;;6213679;23;20181;-83
2023/12/07 09:55:38;;;;;;;112.57;39.63;;;;;;;;;;6213455;23;20174;-86
2023/12/07 09:58:07;;;;;;;97.77;34.50;;;;;;;;;;6214464;23;20190;-87
2023/12/07 10:00:37;;;;;;;116.87;41.37;;;;;;;;;;6213844;23;20178;-86
2023/12/07 10:03:09;;;;;;;87.03;33.73;;;;;;;;;;6213695;23;20233;-86
2023/12/07 10:05:53;;;;;;;158.67;49.50;;;;;;;;;;6214104;23;20429;-86
2023/12/07 10:08:27;;;;;;;81.03;29.80;;;;;;;;;;6213882;23;20225;-85
2023/12/07 10:11:06;;;;;;;91.40;40.70;;;;;;;;;;6213742;23;20173;-86
2023/12/07 10:13:35;;;;;;;111.50;42.10;;;;;;;;;;6213155;23;20258;-86
2023/12/07 10:16:08;;;;;;;109.07;38.20;;;;;;;;;;6213397;23;20182;-86
2023/12/07 10:18:37;;;;;;;107.77;44.43;;;;;;;;;;6213682;23;20197;-86
2023/12/07 10:21:10;;;;;;;117.53;41.23;;;;;;;;;;6213630;23;20175;-86
2023/12/07 10:23:39;;;;;;;114.77;33.93;;;;;;;;;;6212994;23;20194;-86
2023/12/07 10:26:12;;;;;;;110.40;40.80;;;;;;;;;;6213079;23;20205;-86
2023/12/07 10:28:41;;;;;;;73.47;23.50;;;;;;;;;;6214513;23;20175;-86
2023/12/07 10:31:10;;;;;;;51.47;17.97;;;;;;;;;;6214004;23;20175;-86
2023/12/07 10:33:39;;;;;;;65.27;21.10;;;;;;;;;;6213224;23;20198;-86
2023/12/07 10:36:08;;;;;;;121.00;37.53;;;;;;;;;;6213591;23;20194;-86
2023/12/07 10:38:39;;;;;;;94.70;35.77;;;;;;;;;;6214020;23;20200;-86
2023/12/07 10:41:12;;;;;;;107.53;45.87;;;;;;;;;;6213737;23;20166;-86
2023/12/07 10:43:44;;;;;;;87.80;29.77;;;;;;;;;;6213100;23;20268;-86
2023/12/07 10:46:16;;;;;;;58.70;20.67;;;;;;;;;;6213751;23;20202;-86
2023/12/07 10:48:47;;;;;;;65.50;25.27;;;;;;;;;;6214400;23;20175;-86
2023/12/07 10:51:19;;;;;;;52.20;17.60;;;;;;;;;;6213631;23;20171;-86
2023/12/07 10:53:49;;;;;;;65.13;24.50;;;;;;;;;;6213146;23;20181;-86
2023/12/07 10:56:30;;;;;;;70.13;30.90;;;;;;;;;;6213674;23;20187;-87
2023/12/07 10:58:59;;;;;;;53.60;27.47;;;;;;;;;;6214143;23;20273;-86
2023/12/07 11:01:28;;;;;;;44.17;20.77;;;;;;;;;;6213139;23;20193;-86
2023/12/07 11:03:57;;;;;;;69.47;31.93;;;;;;;;;;6212442;23;20226;-86
2023/12/07 11:06:26;;;;;;;61.80;31.43;;;;;;;;;;6213726;23;20192;-86
2023/12/07 11:08:57;;;;;;;63.27;23.07;;;;;;;;;;6213810;23;20166;-86
2023/12/07 11:11:30;;;;;;;56.00;25.70;;;;;;;;;;6213674;23;20175;-86
2023/12/07 11:13:59;;;;;;;46.57;19.70;;;;;;;;;;6212747;23;20185;-86
2023/12/07 11:16:31;;;;;;;51.60;25.27;;;;;;;;;;6213158;23;20221;-87
2023/12/07 11:19:00;;;;;;;56.43;25.00;;;;;;;;;;6213597;23;20201;-86
2023/12/07 11:21:29;;;;;;;37.13;19.00;;;;;;;;;;6213418;23;20253;-86
2023/12/07 11:23:57;;;;;;;65.87;30.17;;;;;;;;;;6212562;23;20225;-86
2023/12/07 11:26:27;;;;;;;74.43;28.70;;;;;;;;;;6213328;23;20228;-86
2023/12/07 11:28:56;;;;;;;62.57;29.13;;;;;;;;;;6213988;23;20170;-86
2023/12/07 11:31:25;;;;;;;56.77;24.37;;;;;;;;;;6213907;23;20204;-86
2023/12/07 11:33:55;;;;;;;30.90;14.60;;;;;;;;;;6213141;23;20406;-86
2023/12/07 11:36:23;;;;;;;54.17;21.33;;;;;;;;;;6213394;23;20183;-86
2023/12/07 11:39:12;;;;;;;27.47;15.17;;;;;;;;;;6214073;23;20248;-87
2023/12/07 11:41:55;;;;;;;13.17;9.27;;;;;;;;;;6213906;23;20172;-87
2023/12/07 11:44:26;;;;;;;33.07;12.27;;;;;;;;;;6214203;23;20254;-87
2023/12/07 11:46:55;;;;;;;53.50;23.37;;;;;;;;;;6213345;23;20197;-87
2023/12/07 11:49:24;;;;;;;35.47;17.80;;;;;;;;;;6213401;23;20174;-87
2023/12/07 11:52:13;;;;;;;41.90;21.27;;;;;;;;;;6213170;23;20201;-87
2023/12/07 11:54:42;;;;;;;24.90;16.20;;;;;;;;;;6212907;23;20174;-87
2023/12/07 11:57:12;;;;;;;61.77;29.37;;;;;;;;;;6215576;23;20181;-87
2023/12/07 11:59:40;;;;;;;48.50;28.03;;;;;;;;;;6215694;23;20317;-87
2023/12/07 12:02:09;;;;;;;39.40;17.87;;;;;;;;;;6214528;23;20170;-86
2023/12/07 12:04:38;;;;;;;30.20;14.57;;;;;;;;;;6214431;23;20182;-87
2023/12/07 12:07:07;;;;;;;19.77;9.93;;;;;;;;;;6215309;23;20178;-87
2023/12/07 12:09:35;;;;;;;8.80;4.60;;;;;;;;;;6216335;23;20259;-87
2023/12/07 12:12:04;;;;;;;20.30;7.50;;;;;;;;;;6214843;23;20185;-88
2023/12/07 12:14:34;;;;;;;32.43;18.30;;;;;;;;;;6214966;23;20172;-88
2023/12/07 12:17:04;;;;;;;34.97;15.23;;;;;;;;;;6215544;23;20166;-88
2023/12/07 12:19:36;;;;;;;17.63;10.03;;;;;;;;;;6215546;23;20196;-88
2023/12/07 12:22:06;;;;;;;32.73;16.87;;;;;;;;;;6215134;23;20171;-88
2023/12/07 12:24:36;;;;;;;20.70;11.90;;;;;;;;;;6215306;23;20228;-88
2023/12/07 12:27:05;;;;;;;22.07;13.63;;;;;;;;;;6215804;23;20236;-88
2023/12/07 12:29:35;;;;;;;26.83;17.10;;;;;;;;;;6215736;23;20256;-88
2023/12/07 12:32:05;;;;;;;5.87;4.70;;;;;;;;;;6215596;23;20206;-87
2023/12/07 12:34:34;;;;;;;25.30;12.57;;;;;;;;;;6215223;23;20201;-88
2023/12/07 12:37:05;;;;;;;11.43;5.80;;;;;;;;;;6215763;23;20176;-88
2023/12/07 12:39:35;;;;;;;27.80;12.23;;;;;;;;;;6215318;23;20188;-88
2023/12/07 12:42:04;;;;;;;2.80;2.13;;;;;;;;;;6214978;23;20217;-88
2023/12/07 12:44:35;;;;;;;15.53;9.50;;;;;;;;;;6214992;23;20181;-89
2023/12/07 12:47:08;;;;;;;11.03;5.47;;;;;;;;;;6215153;23;20172;-88
2023/12/07 12:49:38;;;;;;;14.20;8.43;;;;;;;;;;6215681;23;20231;-88
2023/12/07 12:52:11;;;;;;;0.80;0.80;;;;;;;;;;6214780;23;20173;-88
2023/12/07 12:54:40;;;;;;;8.57;6.27;;;;;;;;;;6214674;23;20222;-88
2023/12/07 12:57:09;;;;;;;21.60;6.00;;;;;;;;;;6215237;23;20180;-88
2023/12/07 12:59:40;;;;;;;13.97;10.07;;;;;;;;;;6215199;23;20199;-89
2023/12/07 13:02:10;;;;;;;21.37;9.47;;;;;;;;;;6215333;23;20181;-89
2023/12/07 13:04:40;;;;;;;17.07;7.90;;;;;;;;;;6216248;23;20178;-92
2023/12/07 13:07:13;;;;;;;11.30;7.67;;;;;;;;;;6216556;23;20202;-92
2023/12/07 13:09:44;;;;;;;13.67;9.03;;;;;;;;;;6217048;23;20168;-92
2023/12/07 13:12:13;;;;;;;10.03;4.70;;;;;;;;;;6215794;23;20203;-92
2023/12/07 13:14:43;;;;;;;10.10;5.20;;;;;;;;;;6215813;23;20204;-92
2023/12/07 13:17:21;;;;;;;11.53;7.47;;;;;;;;;;6217082;23;20407;-93
2023/12/07 13:19:55;;;;;;;13.60;8.90;;;;;;;;;;6215674;23;20187;-92
2023/12/07 13:22:24;;;;;;;10.47;3.20;;;;;;;;;;6215361;23;20250;-91
2023/12/07 13:24:52;;;;;;;7.13;3.87;;;;;;;;;;6215806;23;20173;-91
2023/12/07 13:27:21;;;;;;;8.87;7.80;;;;;;;;;;6215254;23;20179;-91
2023/12/07 13:29:54;;;;;;;13.33;8.57;;;;;;;;;;6215609;23;20203;-92
2023/12/07 13:32:23;;;;;;;9.77;8.13;;;;;;;;;;6215398;23;20183;-91
2023/12/07 13:34:52;;;;;;;13.13;8.23;;;;;;;;;;6214633;23;20174;-88
2023/12/07 13:37:22;;;;;;;13.77;7.57;;;;;;;;;;6214459;23;20168;-89
2023/12/07 13:39:57;;;;;;;16.63;9.67;;;;;;;;;;6215650;23;20196;-89
2023/12/07 13:42:27;;;;;;;11.23;7.13;;;;;;;;;;6214311;23;20202;-89
2023/12/07 13:44:58;;;;;;;12.20;7.67;;;;;;;;;;6214121;23;20197;-88
2023/12/07 13:47:30;;;;;;;21.07;13.60;;;;;;;;;;6214335;23;20176;-89
2023/12/07 13:50:00;;;;;;;10.17;7.00;;;;;;;;;;6214485;23;20169;-88
2023/12/07 13:52:29;;;;;;;14.07;9.33;;;;;;;;;;6214185;23;20430;-88
2023/12/07 13:54:58;;;;;;;15.57;7.37;;;;;;;;;;6213642;23;20203;-88
2023/12/07 13:57:32;;;;;;;18.23;8.13;;;;;;;;;;6213519;23;20182;-86
2023/12/07 14:00:02;;;;;;;14.83;7.73;;;;;;;;;;6213687;23;20186;-86
2023/12/07 14:02:33;;;;;;;14.07;8.63;;;;;;;;;;6214577;23;20177;-86
2023/12/07 14:05:04;;;;;;;18.17;7.93;;;;;;;;;;6213690;23;20181;-88
2023/12/07 14:07:33;;;;;;;21.77;16.03;;;;;;;;;;6214723;23;20202;-88
2023/12/07 14:10:05;;;;;;;17.03;11.33;;;;;;;;;;6214085;23;20185;-88
2023/12/07 14:12:34;;;;;;;14.27;8.33;;;;;;;;;;6213574;23;20180;-88
2023/12/07 14:15:04;;;;;;;13.33;8.47;;;;;;;;;;6212225;23;20176;-88
2023/12/07 14:17:37;;;;;;;15.33;8.93;;;;;;;;;;6214145;23;20185;-88
2023/12/07 14:20:18;;;;;;;15.03;11.17;;;;;;;;;;6213597;23;20199;-88
2023/12/07 14:23:07;;;;;;;19.57;14.03;;;;;;;;;;6213413;23;20199;-88
2023/12/07 14:25:36;;;;;;;15.40;9.60;;;;;;;;;;6212580;23;20209;-88
2023/12/07 14:28:04;;;;;;;11.50;7.83;;;;;;;;;;6213761;23;20170;-88
2023/12/07 14:30:37;;;;;;;17.70;10.47;;;;;;;;;;6214366;23;20177;-90
2023/12/07 14:33:06;;;;;;;16.03;9.43;;;;;;;;;;6213146;23;20256;-89
2023/12/07 14:35:38;;;;;;;16.90;10.83;;;;;;;;;;6213288;23;20166;-90
2023/12/07 14:38:08;;;;;;;20.60;9.80;;;;;;;;;;6214450;23;20172;-89